»·PEaware :: WAT398 KBLI-KGJT

WAT398 :: KBLI-KGJT

FLIGHT INFORMATION

Flight Status: Arrived
Operator:
Walker Air Transport
More flights by this operator :: More flights under this callsign
Pilot: Tyler S. (27221)
Aircraft: CANADAIR CL-600 CHALLENGER
(CL60)
More flights by this aircraft type
Origin: KBLI Bellingham Intl
United States
Destination: KGJT Grand Junction Regl
United States
More flights between these airports :: More routes between these airports
Route: KIENO6 CVV JNC
File this flight plan on PilotEdge
Remarks: RMK / SIMBRIEF
Altitude:
(Current/Filed)
39,000ft
Speed:
(Current/Filed)
460kts
Departed: 04-Feb-23 11:58 AM
Arrived: 04-Feb-23 01:54 PM
Distance/Time
Traveled:
836nm/1:56
Distance/Time
To Go:
Arrived

Flight Plot

Page will automatically refresh every two minutes.

Flight plan parsing failed; only flown route is shown


Map Options




Map Legend


Flown Route
Filed Route
Departure Airport
Arrival Airport
Navaid (VOR, NDB)
Fix

Horizontal Profiles

Position Reports

Time Latitude Longitude Heading Altitude Ground
Speed
04-Feb-23 11:11 48.793936 -122.532411 139 164ft 0kts
04-Feb-23 11:12 48.793936 -122.532411 139 164ft 0kts
04-Feb-23 11:13 48.793936 -122.532411 139 164ft 0kts
04-Feb-23 11:14 48.793936 -122.532411 139 164ft 0kts
04-Feb-23 11:15 48.793936 -122.532411 139 164ft 0kts
04-Feb-23 11:16 48.793936 -122.532411 139 164ft 0kts
04-Feb-23 11:17 48.793936 -122.532411 139 164ft 0kts
04-Feb-23 11:18 48.793936 -122.532411 139 164ft 0kts
04-Feb-23 11:19 48.793936 -122.532411 139 164ft 0kts
04-Feb-23 11:20 48.793936 -122.532411 139 164ft 0kts
04-Feb-23 11:21 48.793936 -122.532411 139 164ft 0kts
04-Feb-23 11:22 48.793936 -122.532411 139 164ft 0kts
04-Feb-23 11:23 48.793936 -122.532411 139 164ft 0kts
04-Feb-23 11:25 48.793936 -122.532411 139 164ft 0kts
04-Feb-23 11:26 48.793936 -122.532411 139 164ft 0kts
04-Feb-23 11:27 48.793936 -122.532411 139 164ft 0kts
04-Feb-23 11:28 48.793936 -122.532411 139 164ft 0kts
04-Feb-23 11:29 48.793936 -122.532411 139 164ft 0kts
04-Feb-23 11:30 48.793936 -122.532411 139 164ft 0kts
04-Feb-23 11:31 48.793936 -122.532411 139 164ft 0kts
04-Feb-23 11:32 48.793936 -122.532411 139 164ft 0kts
04-Feb-23 11:33 48.793936 -122.532411 139 164ft 0kts
04-Feb-23 11:34 48.793936 -122.532411 139 164ft 0kts
04-Feb-23 11:35 48.793936 -122.532411 139 164ft 0kts
04-Feb-23 11:36 48.793936 -122.532411 139 164ft 0kts
04-Feb-23 11:37 48.793936 -122.532411 139 164ft 0kts
04-Feb-23 11:38 48.793936 -122.532411 139 164ft 0kts
04-Feb-23 11:39 48.793936 -122.532411 139 164ft 0kts
04-Feb-23 11:40 48.793936 -122.532411 139 164ft 0kts
04-Feb-23 11:41 48.793936 -122.532411 139 164ft 0kts
04-Feb-23 11:42 48.793936 -122.532411 139 164ft 0kts
04-Feb-23 11:43 48.793936 -122.532411 139 164ft 0kts
04-Feb-23 11:44 48.793936 -122.532411 139 164ft 0kts
04-Feb-23 11:45 48.793936 -122.532411 139 164ft 0kts
04-Feb-23 11:46 48.793936 -122.532411 139 164ft 0kts
04-Feb-23 11:47 48.793936 -122.532411 139 164ft 0kts
04-Feb-23 11:48 48.793936 -122.532410 139 164ft 0kts
04-Feb-23 11:49 48.793936 -122.532410 139 164ft 0kts
04-Feb-23 11:50 48.793936 -122.532410 139 164ft 0kts
04-Feb-23 11:51 48.793936 -122.532410 139 164ft 0kts
04-Feb-23 11:52 48.793932 -122.532405 139 164ft 0kts
04-Feb-23 11:53 48.794577 -122.533939 321 162ft 11kts
04-Feb-23 11:54 48.797562 -122.535838 359 162ft 14kts
04-Feb-23 11:55 48.801601 -122.535830 325 152ft 9kts
04-Feb-23 11:55 48.801766 -122.536316 270 152ft 0kts
04-Feb-23 11:57 48.801764 -122.536905 268 152ft 5kts
04-Feb-23 11:58 48.784819 -122.538139 178 507ft 170kts
04-Feb-23 11:59 48.736140 -122.565308 205 4996ft 200kts
04-Feb-23 11:59 48.692229 -122.579252 181 8510ft 226kts
04-Feb-23 12:00 48.628407 -122.589234 197 12532ft 251kts
04-Feb-23 12:01 48.555667 -122.616197 195 15970ft 291kts
04-Feb-23 12:02 48.474786 -122.644490 196 19691ft 309kts
04-Feb-23 12:03 48.390090 -122.673931 196 23029ft 321kts
04-Feb-23 12:04 48.301353 -122.704680 197 25890ft 333kts
04-Feb-23 12:05 48.214182 -122.663130 134 28113ft 387kts
04-Feb-23 12:06 48.147926 -122.534069 132 30036ft 404kts
04-Feb-23 12:07 48.078235 -122.398139 133 31760ft 416kts
04-Feb-23 12:08 48.007399 -122.260500 133 33145ft 427kts
04-Feb-23 12:09 47.935999 -122.122558 133 34364ft 434kts
04-Feb-23 12:10 47.871038 -121.997771 133 35460ft 436kts
04-Feb-23 12:11 47.795423 -121.853233 132 36574ft 440kts
04-Feb-23 12:12 47.716466 -121.703107 132 37566ft 444kts
04-Feb-23 12:13 47.640597 -121.559608 132 38397ft 447kts
04-Feb-23 12:14 47.572289 -121.431089 132 39036ft 451kts
04-Feb-23 12:15 47.491100 -121.279142 132 39035ft 471kts
04-Feb-23 12:16 47.407928 -121.124353 132 39052ft 486kts
04-Feb-23 12:17 47.323052 -120.967281 132 39085ft 496kts
04-Feb-23 12:18 47.238509 -120.811672 132 39089ft 496kts
04-Feb-23 12:19 47.150736 -120.651069 132 39091ft 495kts
04-Feb-23 12:20 47.064034 -120.493354 132 39090ft 495kts
04-Feb-23 12:21 46.976568 -120.335159 133 39090ft 496kts
04-Feb-23 12:22 46.889614 -120.178793 133 39094ft 497kts
04-Feb-23 12:23 46.802696 -120.023399 133 39104ft 497kts
04-Feb-23 12:24 46.714542 -119.866669 133 39105ft 498kts
04-Feb-23 12:25 46.626077 -119.710250 133 39105ft 498kts
04-Feb-23 12:26 46.537373 -119.554302 133 39105ft 499kts
04-Feb-23 12:27 46.447826 -119.397763 133 39105ft 499kts
04-Feb-23 12:28 46.359613 -119.244425 134 39103ft 498kts
04-Feb-23 12:29 46.270562 -119.090485 134 39106ft 499kts
04-Feb-23 12:30 46.180957 -118.936442 134 39103ft 500kts
04-Feb-23 12:31 46.090566 -118.781933 134 39093ft 500kts
04-Feb-23 12:32 45.999599 -118.627285 134 39093ft 500kts
04-Feb-23 12:33 45.908423 -118.473151 134 39094ft 499kts
04-Feb-23 12:34 45.818083 -118.321265 134 39089ft 500kts
04-Feb-23 12:35 45.728842 -118.172033 134 39094ft 500kts
04-Feb-23 12:36 45.638421 -118.021644 134 39100ft 500kts
04-Feb-23 12:37 45.547360 -117.870993 134 39120ft 500kts
04-Feb-23 12:38 45.455865 -117.720471 134 39129ft 501kts
04-Feb-23 12:39 45.363157 -117.568738 134 39129ft 502kts
04-Feb-23 12:40 45.271394 -117.419384 134 39130ft 502kts
04-Feb-23 12:41 45.179929 -117.271291 135 39127ft 502kts
04-Feb-23 12:42 45.088433 -117.123950 135 39133ft 503kts
04-Feb-23 12:43 44.995962 -116.975828 135 39135ft 503kts
04-Feb-23 12:44 44.902857 -116.827463 135 39130ft 503kts
04-Feb-23 12:45 44.808366 -116.677713 135 39131ft 504kts
04-Feb-23 12:46 44.713910 -116.528801 135 39132ft 505kts
04-Feb-23 12:47 44.620793 -116.382768 135 39132ft 506kts
04-Feb-23 12:48 44.527608 -116.237376 136 39129ft 507kts
04-Feb-23 12:49 44.433557 -116.091397 136 39143ft 508kts
04-Feb-23 12:50 44.338877 -115.945232 136 39152ft 508kts
04-Feb-23 12:51 44.243672 -115.798982 136 39153ft 508kts
04-Feb-23 12:52 44.148487 -115.653523 136 39153ft 508kts
04-Feb-23 12:53 44.053072 -115.508479 136 39153ft 508kts
04-Feb-23 12:54 43.957196 -115.363448 136 39156ft 509kts
04-Feb-23 12:55 43.863071 -115.221817 136 39151ft 510kts
04-Feb-23 12:56 43.765529 -115.075814 136 39165ft 512kts
04-Feb-23 12:57 43.668573 -114.931412 136 39204ft 512kts
04-Feb-23 12:58 43.571448 -114.787488 136 39202ft 512kts
04-Feb-23 12:59 43.473944 -114.643741 136 39203ft 512kts
04-Feb-23 13:00 43.376355 -114.500590 136 39202ft 513kts
04-Feb-23 13:01 43.278070 -114.357141 136 39202ft 513kts
04-Feb-23 13:02 43.179318 -114.213729 137 39200ft 512kts
04-Feb-23 13:03 43.080596 -114.071110 137 39106ft 513kts
04-Feb-23 13:04 42.981902 -113.929258 137 39000ft 512kts
04-Feb-23 13:05 42.882831 -113.787528 137 39006ft 514kts
04-Feb-23 13:06 42.783872 -113.646706 137 39009ft 515kts
04-Feb-23 13:07 42.684109 -113.505393 137 39044ft 515kts
04-Feb-23 13:08 42.584102 -113.364435 137 39159ft 516kts
04-Feb-23 13:09 42.482058 -113.221328 137 39185ft 517kts
04-Feb-23 13:10 42.380786 -113.080031 137 39190ft 516kts
04-Feb-23 13:11 42.279260 -112.939043 137 39201ft 517kts
04-Feb-23 13:12 42.178284 -112.799511 137 39224ft 518kts
04-Feb-23 13:13 42.076814 -112.660013 137 39229ft 518kts
04-Feb-23 13:14 41.975768 -112.521718 137 39234ft 519kts
04-Feb-23 13:15 41.874810 -112.384248 137 39235ft 520kts
04-Feb-23 13:16 41.773479 -112.246914 138 39238ft 519kts
04-Feb-23 13:17 41.671510 -112.109417 138 39241ft 520kts
04-Feb-23 13:18 41.570277 -111.973503 138 39241ft 520kts
04-Feb-23 13:19 41.467770 -111.836541 138 39238ft 519kts
04-Feb-23 13:20 41.365544 -111.700612 138 39221ft 520kts
04-Feb-23 13:21 41.263218 -111.565226 137 39213ft 520kts
04-Feb-23 13:22 41.160379 -111.429767 137 39215ft 520kts
04-Feb-23 13:23 41.054954 -111.291540 138 39211ft 519kts
04-Feb-23 13:24 40.952943 -111.158445 138 39216ft 520kts
04-Feb-23 13:25 40.850064 -111.024810 138 39212ft 519kts
04-Feb-23 13:26 40.747029 -110.891604 138 39232ft 518kts
04-Feb-23 13:27 40.643590 -110.758477 138 39288ft 518kts
04-Feb-23 13:28 40.540244 -110.626084 138 39290ft 518kts
04-Feb-23 13:29 40.436885 -110.494259 138 39292ft 517kts
04-Feb-23 13:30 40.333643 -110.363184 138 39306ft 516kts
04-Feb-23 13:31 40.229852 -110.231974 138 39261ft 517kts
04-Feb-23 13:32 40.126662 -110.102081 138 39238ft 499kts
04-Feb-23 13:33 40.030156 -109.981079 139 38086ft 472kts
04-Feb-23 13:34 39.934695 -109.861964 139 35834ft 474kts
04-Feb-23 13:35 39.838537 -109.742518 139 33381ft 474kts
04-Feb-23 13:36 39.743320 -109.624861 138 31424ft 459kts
04-Feb-23 13:37 39.650061 -109.510082 137 29580ft 445kts
04-Feb-23 13:38 39.559654 -109.399050 137 27796ft 430kts
04-Feb-23 13:39 39.474364 -109.294698 138 25360ft 408kts
04-Feb-23 13:40 39.392859 -109.195325 138 22710ft 387kts
04-Feb-23 13:41 39.316164 -109.102127 138 20058ft 368kts
04-Feb-23 13:42 39.243383 -109.013953 138 17456ft 349kts
04-Feb-23 13:43 39.175097 -108.931428 139 15460ft 315kts
04-Feb-23 13:44 39.112972 -108.856602 139 13440ft 296kts
04-Feb-23 13:45 39.060789 -108.778344 119 11760ft 290kts
04-Feb-23 13:46 39.023835 -108.688793 119 10489ft 274kts
04-Feb-23 13:47 38.990340 -108.608367 119 9883ft 226kts
04-Feb-23 13:48 39.006818 -108.543244 48 8631ft 203kts
04-Feb-23 13:49 39.040562 -108.492499 49 6681ft 169kts
04-Feb-23 13:50 39.073226 -108.464089 16 5907ft 138kts
04-Feb-23 13:51 39.103090 -108.486483 301 5488ft 135kts
04-Feb-23 13:52 39.123965 -108.524342 305 4854ft 89kts
04-Feb-23 13:53 39.125982 -108.530274 169 4840ft 7kts
04-Feb-23 13:54 39.124069 -108.526935 125 4846ft 13kts
04-Feb-23 13:55 39.121955 -108.523587 181 4848ft 8kts
04-Feb-23 13:56 39.120674 -108.522461 126 4843ft 0kts
04-Feb-23 13:57 39.120674 -108.522461 126 4843ft 0kts
04-Feb-23 13:58 39.120674 -108.522461 126 4843ft 0kts
04-Feb-23 13:59 39.120674 -108.522461 126 4843ft 0kts
04-Feb-23 14:00 39.120674 -108.522461 126 4843ft 0kts
04-Feb-23 14:01 39.120674 -108.522461 126 4843ft 0kts
04-Feb-23 14:02 39.120674 -108.522461 126 4843ft 0kts
04-Feb-23 14:03 39.120674 -108.522461 126 4843ft 0kts
04-Feb-23 14:04 39.120674 -108.522461 126 4843ft 0kts
04-Feb-23 14:05 39.120674 -108.522461 126 4843ft 0kts
04-Feb-23 14:06 39.120674 -108.522461 126 4843ft 0kts
04-Feb-23 14:07 39.120674 -108.522461 126 4843ft 0kts

Navigation Log

Ident Type
Flight plan parsing failed, navigation log unavailable